createdAt,value
2023-04-09T00:00:51.779Z,6.90
2023-04-09T00:05:56.333Z,5.43
2023-04-09T00:11:00.565Z,4.30
2023-04-09T00:16:03.676Z,5.10
2023-04-09T00:21:08.611Z,6.00
2023-04-09T00:26:12.078Z,5.87
2023-04-09T00:31:16.135Z,5.83
2023-04-09T00:36:20.709Z,7.23
2023-04-09T00:41:23.904Z,9.03
2023-04-09T00:46:27.000Z,6.50
2023-04-09T00:51:31.549Z,7.27
2023-04-09T00:56:35.448Z,6.00
2023-04-09T01:01:38.659Z,6.20
2023-04-09T01:06:49.710Z,5.93
2023-04-09T01:12:11.494Z,6.27
2023-04-09T01:17:20.358Z,7.33
2023-04-09T01:22:43.151Z,5.70
2023-04-09T01:27:58.737Z,5.37
2023-04-09T01:33:04.552Z,5.13
2023-04-09T01:38:08.388Z,5.30
2023-04-09T01:43:13.194Z,6.17
2023-04-09T01:48:17.945Z,7.20
2023-04-09T01:53:22.530Z,6.43
2023-04-09T01:58:27.188Z,7.43
2023-04-09T02:03:39.081Z,8.13
2023-04-09T02:08:45.636Z,5.80
2023-04-09T02:13:50.685Z,6.50
2023-04-09T02:18:56.942Z,7.73
2023-04-09T02:24:00.165Z,8.07
2023-04-09T02:29:03.555Z,6.53
2023-04-09T02:34:08.006Z,6.07
2023-04-09T02:39:11.193Z,7.43
2023-04-09T02:44:14.243Z,6.97
2023-04-09T02:49:19.591Z,8.30
2023-04-09T02:54:22.656Z,8.73
2023-04-09T02:59:25.814Z,7.77
2023-04-09T03:04:30.366Z,7.60
2023-04-09T03:09:33.402Z,8.93
2023-04-09T03:14:36.451Z,8.43
2023-04-09T03:19:40.924Z,7.30
2023-04-09T03:24:43.954Z,7.47
2023-04-09T03:29:46.999Z,7.23
2023-04-09T03:34:52.510Z,7.30
2023-04-09T03:39:58.890Z,8.90
2023-04-09T03:45:04.745Z,9.87
2023-04-09T03:50:14.749Z,8.67
2023-04-09T03:55:28.275Z,8.67
2023-04-09T04:00:32.233Z,8.73
2023-04-09T04:06:03.463Z,9.07
2023-04-09T04:11:16.482Z,8.80
2023-04-09T04:16:19.933Z,9.03
2023-04-09T04:21:24.665Z,8.27
2023-04-09T04:26:35.156Z,7.77
2023-04-09T04:31:38.685Z,8.77
2023-04-09T04:36:43.332Z,10.00
2023-04-09T04:41:46.548Z,8.53
2023-04-09T04:46:55.206Z,8.60
2023-04-09T04:51:59.707Z,8.40
2023-04-09T04:57:04.147Z,6.00
2023-04-09T05:02:17.547Z,6.07
2023-04-09T05:07:51.633Z,5.80
2023-04-09T05:12:55.005Z,6.07
2023-04-09T05:18:06.608Z,7.73
2023-04-09T05:23:12.488Z,7.47
2023-04-09T05:28:22.897Z,5.27
2023-04-09T05:33:38.208Z,6.03
2023-04-09T05:38:49.224Z,6.30
2023-04-09T05:43:52.531Z,6.00
2023-04-09T05:48:56.653Z,6.87
2023-04-09T05:54:04.024Z,6.83
2023-04-09T05:59:11.662Z,11.10
2023-04-09T06:04:15.852Z,7.13
2023-04-09T06:09:20.435Z,5.33
2023-04-09T06:14:23.539Z,6.23
2023-04-09T06:19:26.634Z,5.73
2023-04-09T06:24:32.470Z,4.70
2023-04-09T06:29:35.641Z,4.43
2023-04-09T06:34:38.727Z,5.33
2023-04-09T06:39:50.578Z,4.90
2023-04-09T06:45:08.279Z,4.20
2023-04-09T06:50:11.663Z,6.27
2023-04-09T06:55:16.503Z,7.03
2023-04-09T07:00:19.623Z,5.10
2023-04-09T07:05:22.893Z,5.50
2023-04-09T07:10:27.400Z,6.33
2023-04-09T07:15:30.442Z,5.37
2023-04-09T07:20:34.328Z,5.43
2023-04-09T07:25:38.780Z,5.50
2023-04-09T07:30:42.108Z,4.90
2023-04-09T07:35:45.572Z,5.40
2023-04-09T07:40:50.045Z,5.07
2023-04-09T07:45:53.065Z,6.07
2023-04-09T07:50:56.103Z,5.40
2023-04-09T07:56:00.503Z,7.50
2023-04-09T08:01:03.539Z,6.17
2023-04-09T08:06:07.256Z,7.33
2023-04-09T08:11:11.652Z,5.83
2023-04-09T08:16:14.769Z,5.90
2023-04-09T08:21:19.671Z,5.77
2023-04-09T08:26:24.058Z,6.10
2023-04-09T08:31:27.469Z,7.07
2023-04-09T08:36:31.668Z,5.93
2023-04-09T08:41:42.879Z,4.30
2023-04-09T08:46:46.014Z,4.90
2023-04-09T08:51:49.941Z,5.37
2023-04-09T08:56:54.423Z,5.17
2023-04-09T09:02:08.685Z,3.77
2023-04-09T09:07:12.050Z,3.83
2023-04-09T09:12:38.167Z,4.30
2023-04-09T09:17:56.729Z,5.43
2023-04-09T09:23:00.154Z,5.30
2023-04-09T09:28:10.177Z,5.17
2023-04-09T09:33:13.522Z,3.40
2023-04-09T09:38:17.168Z,4.53
2023-04-09T09:43:21.602Z,4.70
2023-04-09T09:48:27.054Z,4.83
2023-04-09T09:53:33.811Z,4.80
2023-04-09T09:58:42.730Z,5.53
2023-04-09T10:03:47.401Z,5.00
2023-04-09T10:08:51.738Z,5.50
2023-04-09T10:13:58.938Z,4.53
2023-04-09T10:19:03.344Z,5.80
2023-04-09T10:24:08.065Z,4.07
2023-04-09T10:29:13.963Z,4.13
2023-04-09T10:34:17.576Z,4.13
2023-04-09T10:39:20.649Z,4.00
2023-04-09T10:44:27.001Z,3.67
2023-04-09T10:49:37.952Z,4.90
2023-04-09T10:54:46.029Z,4.33
2023-04-09T10:59:52.249Z,3.60
2023-04-09T11:05:13.980Z,3.93
2023-04-09T11:10:17.173Z,3.37
2023-04-09T11:15:21.980Z,4.37
2023-04-09T11:20:26.372Z,3.67
2023-04-09T11:25:31.603Z,4.20
2023-04-09T11:30:37.380Z,3.70
2023-04-09T11:35:40.734Z,2.80
2023-04-09T11:40:48.492Z,2.90
2023-04-09T11:45:54.209Z,3.53
2023-04-09T11:50:58.905Z,3.27
2023-04-09T11:56:02.629Z,3.90
2023-04-09T12:01:07.194Z,4.30
2023-04-09T12:06:10.949Z,4.00
2023-04-09T12:11:16.478Z,4.70
2023-04-09T12:16:21.942Z,3.97
2023-04-09T12:21:26.036Z,4.07
2023-04-09T12:26:29.181Z,3.03
2023-04-09T12:31:33.630Z,4.07
2023-04-09T12:36:37.068Z,3.70
2023-04-09T12:41:40.375Z,3.43
2023-04-09T12:46:44.888Z,3.30
2023-04-09T12:51:47.967Z,2.57
2023-04-09T12:56:51.187Z,2.70
2023-04-09T13:01:55.598Z,2.93
2023-04-09T13:06:58.774Z,2.60
2023-04-09T13:12:02.068Z,2.70
2023-04-09T13:17:06.756Z,2.40
2023-04-09T13:22:10.460Z,2.43
2023-04-09T13:27:13.669Z,2.90
2023-04-09T13:32:18.920Z,3.30
2023-04-09T13:37:21.978Z,2.93
2023-04-09T13:42:25.033Z,2.87
2023-04-09T13:47:29.462Z,2.73
2023-04-09T13:52:33.158Z,3.40
2023-04-09T13:57:36.489Z,3.43
2023-04-09T14:02:41.021Z,3.90
2023-04-09T14:07:44.071Z,3.20
2023-04-09T14:12:47.173Z,2.13
2023-04-09T14:17:51.626Z,3.33
2023-04-09T14:22:55.338Z,2.60
2023-04-09T14:27:59.001Z,2.70
2023-04-09T14:33:03.661Z,2.23
2023-04-09T14:38:07.574Z,3.10
2023-04-09T14:43:10.735Z,3.40
2023-04-09T14:48:15.254Z,3.00
2023-04-09T14:53:18.424Z,2.73
2023-04-09T14:58:21.541Z,3.20
2023-04-09T15:03:26.944Z,3.20
2023-04-09T15:08:30.438Z,2.60
2023-04-09T15:13:33.484Z,2.97
2023-04-09T15:18:37.924Z,2.73
2023-04-09T15:23:41.008Z,3.40
2023-04-09T15:28:44.057Z,2.60
2023-04-09T15:33:50.279Z,2.80
2023-04-09T15:38:55.027Z,2.43
2023-04-09T15:43:58.305Z,2.13
2023-04-09T15:49:02.780Z,1.90
2023-04-09T15:54:05.861Z,2.23
2023-04-09T15:59:09.183Z,2.63
2023-04-09T16:04:13.661Z,2.07
2023-04-09T16:09:16.773Z,3.27
2023-04-09T16:14:20.052Z,2.30
2023-04-09T16:19:58.592Z,2.37
2023-04-09T16:25:01.893Z,2.87
2023-04-09T16:30:05.882Z,2.03
2023-04-09T16:35:10.479Z,2.20
2023-04-09T16:40:13.620Z,2.00
2023-04-09T16:45:16.808Z,2.00
2023-04-09T16:50:21.523Z,2.10
2023-04-09T16:55:24.802Z,2.53
2023-04-09T17:00:28.464Z,2.27
2023-04-09T17:05:33.076Z,3.23
2023-04-09T17:10:37.916Z,2.43
2023-04-09T17:15:41.394Z,2.27
2023-04-09T17:20:46.918Z,2.23
2023-04-09T17:25:55.146Z,2.50
2023-04-09T17:31:02.100Z,2.40
2023-04-09T17:36:07.258Z,2.53
2023-04-09T17:41:10.706Z,2.20
2023-04-09T17:46:14.370Z,2.07
2023-04-09T17:51:20.716Z,1.93
2023-04-09T17:56:23.855Z,1.70
2023-04-09T18:01:29.786Z,1.90
2023-04-09T18:06:34.951Z,1.77
2023-04-09T18:11:38.087Z,1.97
2023-04-09T18:16:41.442Z,1.50
2023-04-09T18:21:45.816Z,1.40
2023-04-09T18:26:48.840Z,1.90
2023-04-09T18:31:51.923Z,1.97
2023-04-09T18:36:56.988Z,1.90
2023-04-09T18:42:00.002Z,1.90
2023-04-09T18:47:05.387Z,2.20
2023-04-09T18:52:10.243Z,2.20
2023-04-09T18:57:13.483Z,1.60
2023-04-09T19:02:16.651Z,1.77
2023-04-09T19:07:21.940Z,2.40
2023-04-09T19:12:25.002Z,2.97
2023-04-09T19:17:28.245Z,2.80
2023-04-09T19:22:32.804Z,3.07
2023-04-09T19:27:35.880Z,2.37
2023-04-09T19:32:39.979Z,3.87
2023-04-09T19:37:44.787Z,2.97
2023-04-09T19:42:47.881Z,3.43
2023-04-09T19:47:51.195Z,3.00
2023-04-09T19:52:56.862Z,3.57
2023-04-09T19:58:00.282Z,3.43
2023-04-09T20:03:05.702Z,3.00
2023-04-09T20:08:13.523Z,3.37
2023-04-09T20:13:18.701Z,2.70
2023-04-09T20:18:21.836Z,4.10
2023-04-09T20:23:26.332Z,3.43
2023-04-09T20:28:29.679Z,3.10
2023-04-09T20:33:33.121Z,2.60
2023-04-09T20:38:37.507Z,2.70
2023-04-09T20:43:40.563Z,3.37
2023-04-09T20:48:44.095Z,2.67
2023-04-09T20:53:48.517Z,2.20
2023-04-09T20:58:51.814Z,2.53
2023-04-09T21:03:55.372Z,2.73
2023-04-09T21:08:59.993Z,2.97
2023-04-09T21:14:04.029Z,3.13
2023-04-09T21:19:07.881Z,2.93
2023-04-09T21:24:12.317Z,2.30
2023-04-09T21:29:15.605Z,2.60
2023-04-09T21:34:18.707Z,2.50
2023-04-09T21:39:23.078Z,4.13
2023-04-09T21:44:26.209Z,4.03
2023-04-09T21:49:29.243Z,3.10
2023-04-09T21:54:33.969Z,2.63
2023-04-09T21:59:37.294Z,2.10
2023-04-09T22:04:42.430Z,2.37
2023-04-09T22:09:47.356Z,2.57
2023-04-09T22:14:52.270Z,2.30
2023-04-09T22:19:55.291Z,2.67
2023-04-09T22:24:59.747Z,2.97
2023-04-09T22:30:03.044Z,3.23
2023-04-09T22:35:06.784Z,2.50
2023-04-09T22:40:14.551Z,2.60
2023-04-09T22:45:17.584Z,2.73
2023-04-09T22:50:20.740Z,1.80
2023-04-09T22:55:25.489Z,1.80
2023-04-09T23:00:28.544Z,2.20
2023-04-09T23:05:31.602Z,2.00
2023-04-09T23:10:36.721Z,1.87
2023-04-09T23:15:39.762Z,1.60
2023-04-09T23:20:42.817Z,1.70
2023-04-09T23:25:47.366Z,1.60
2023-04-09T23:30:50.407Z,1.83
2023-04-09T23:35:53.566Z,2.10
2023-04-09T23:40:58.016Z,2.30
2023-04-09T23:46:01.213Z,2.07
2023-04-09T23:51:04.262Z,2.20
2023-04-09T23:56:09.399Z,1.43
